createdAt,value
2016-10-14T00:00:59.417Z,1005.18
2016-10-14T00:01:59.431Z,1005.18
2016-10-14T00:02:59.446Z,1005.18
2016-10-14T00:03:59.463Z,1005.13
2016-10-14T00:04:59.480Z,1005.09
2016-10-14T00:05:59.495Z,1005.12
2016-10-14T00:06:59.515Z,1005.1
2016-10-14T00:07:59.530Z,1005.04
2016-10-14T00:08:59.546Z,1004.95
2016-10-14T00:09:59.562Z,1004.94
2016-10-14T00:10:59.582Z,1004.94
2016-10-14T00:11:59.596Z,1005.01
2016-10-14T00:12:59.616Z,1004.99
2016-10-14T00:13:59.631Z,1004.97
2016-10-14T00:14:59.645Z,1004.92
2016-10-14T00:15:59.662Z,1004.92
2016-10-14T00:16:59.678Z,1004.94
2016-10-14T00:17:59.698Z,1004.91
2016-10-14T00:18:59.713Z,1004.93
2016-10-14T00:19:59.728Z,1004.98
2016-10-14T00:20:59.747Z,1004.96
2016-10-14T00:21:59.761Z,1004.99
2016-10-14T00:22:59.777Z,1005.06
2016-10-14T00:23:59.794Z,1005.02
2016-10-14T00:24:59.813Z,1005.01
2016-10-14T00:25:59.831Z,1005.08
2016-10-14T00:26:59.847Z,1005.08
2016-10-14T00:27:59.860Z,1005.08
2016-10-14T00:28:59.879Z,1005.05
2016-10-14T00:29:59.893Z,1005.06
2016-10-14T00:30:59.914Z,1005.11
2016-10-14T00:31:59.926Z,1005.04
2016-10-14T00:32:59.946Z,1005.03
2016-10-14T00:33:59.963Z,1005.04
2016-10-14T00:34:59.980Z,1005.03
2016-10-14T00:35:59.992Z,1004.97
2016-10-14T00:37:00.011Z,1005.01
2016-10-14T00:38:00.026Z,1004.98
2016-10-14T00:39:00.042Z,1005
2016-10-14T00:40:00.058Z,1004.98
2016-10-14T00:41:00.074Z,1004.96
2016-10-14T00:42:00.093Z,1005.05
2016-10-14T00:43:00.107Z,1004.96
2016-10-14T00:44:00.126Z,1004.95
2016-10-14T00:45:00.140Z,1004.95
2016-10-14T00:46:00.157Z,1004.99
2016-10-14T00:47:00.176Z,1004.97
2016-10-14T00:48:00.192Z,1004.92
2016-10-14T00:49:00.207Z,1004.95
2016-10-14T00:50:00.223Z,1004.94
2016-10-14T00:51:00.239Z,1004.92
2016-10-14T00:52:00.256Z,1004.9
2016-10-14T00:53:00.272Z,1004.94
2016-10-14T00:54:00.288Z,1004.94
2016-10-14T00:55:00.304Z,1005
2016-10-14T00:56:00.324Z,1005
2016-10-14T00:57:00.389Z,1005
2016-10-14T00:58:00.362Z,1004.95
2016-10-14T00:59:00.372Z,1005.03
2016-10-14T01:00:00.390Z,1004.92
2016-10-14T01:01:00.403Z,1004.93
2016-10-14T01:02:00.423Z,1004.9
2016-10-14T01:03:00.438Z,1004.88
2016-10-14T01:04:00.454Z,1004.91
2016-10-14T01:05:00.469Z,1004.91
2016-10-14T01:06:00.492Z,1004.89
2016-10-14T01:07:00.502Z,1004.88
2016-10-14T01:08:00.529Z,1004.9
2016-10-14T01:09:00.534Z,1004.85
2016-10-14T01:10:00.550Z,1004.85
2016-10-14T01:11:00.570Z,1004.85
2016-10-14T01:12:00.584Z,1004.84
2016-10-14T01:13:00.602Z,1004.79
2016-10-14T01:14:00.616Z,1004.8
2016-10-14T01:15:00.633Z,1004.87
2016-10-14T01:16:00.649Z,1004.79
2016-10-14T01:17:00.665Z,1004.78
2016-10-14T01:18:00.684Z,1004.78
2016-10-14T01:19:00.698Z,1004.77
2016-10-14T01:20:00.717Z,1004.76
2016-10-14T01:21:00.731Z,1004.76
2016-10-14T01:22:00.752Z,1004.72
2016-10-14T01:23:00.763Z,1004.71
2016-10-14T01:24:00.780Z,1004.66
2016-10-14T01:25:00.796Z,1004.75
2016-10-14T01:26:00.813Z,1004.72
2016-10-14T01:27:00.829Z,1004.7
2016-10-14T01:28:00.854Z,1004.66
2016-10-14T01:29:00.868Z,1004.69
2016-10-14T01:30:00.882Z,1004.69
2016-10-14T01:31:00.894Z,1004.66
2016-10-14T01:32:00.913Z,1004.61
2016-10-14T01:33:00.927Z,1004.63
2016-10-14T01:34:00.943Z,1004.58
2016-10-14T01:35:00.962Z,1004.58
2016-10-14T01:36:00.980Z,1004.58
2016-10-14T01:37:00.993Z,1004.57
2016-10-14T01:38:01.012Z,1004.54
2016-10-14T01:39:01.025Z,1004.51
2016-10-14T01:40:01.042Z,1004.52
2016-10-14T01:41:01.057Z,1004.47
2016-10-14T01:42:01.077Z,1004.49
2016-10-14T01:43:01.091Z,1004.44
2016-10-14T01:44:01.111Z,1004.41
2016-10-14T01:45:01.122Z,1004.44
2016-10-14T01:46:01.142Z,1004.43
2016-10-14T01:47:01.156Z,1004.44
2016-10-14T01:48:01.175Z,1004.44
2016-10-14T01:49:01.189Z,1004.49
2016-10-14T01:50:01.216Z,1004.51
2016-10-14T01:51:01.221Z,1004.52
2016-10-14T01:52:01.251Z,1004.52
2016-10-14T01:53:01.255Z,1004.5
2016-10-14T01:54:01.270Z,1004.49
2016-10-14T01:55:01.286Z,1004.48
2016-10-14T01:56:01.302Z,1004.5
2016-10-14T01:57:01.321Z,1004.47
2016-10-14T01:58:01.346Z,1004.48
2016-10-14T01:59:01.352Z,1004.47
2016-10-14T02:00:01.367Z,1004.51
2016-10-14T02:01:01.383Z,1004.49
2016-10-14T02:02:01.400Z,1004.42
2016-10-14T02:03:01.416Z,1004.42
2016-10-14T02:04:01.433Z,1004.42
2016-10-14T02:05:01.449Z,1004.38
2016-10-14T02:06:01.466Z,1004.36
2016-10-14T02:07:01.480Z,1004.4
2016-10-14T02:08:01.499Z,1004.36
2016-10-14T02:09:01.516Z,1004.38
2016-10-14T02:10:01.530Z,1004.38
2016-10-14T02:11:01.548Z,1004.36
2016-10-14T02:12:01.568Z,1004.36
2016-10-14T02:13:01.580Z,1004.35
2016-10-14T02:14:01.598Z,1004.37
2016-10-14T02:15:01.612Z,1004.37
2016-10-14T02:16:01.631Z,1004.39
2016-10-14T02:17:01.647Z,1004.36
2016-10-14T02:18:01.660Z,1004.44
2016-10-14T02:19:01.679Z,1004.36
2016-10-14T02:20:01.698Z,1004.38
2016-10-14T02:21:01.710Z,1004.37
2016-10-14T02:22:01.727Z,1004.33
2016-10-14T02:23:01.745Z,1004.28
2016-10-14T02:24:01.760Z,1004.27
2016-10-14T02:25:01.778Z,1004.26
2016-10-14T02:26:01.793Z,1004.21
2016-10-14T02:27:01.809Z,1004.21
2016-10-14T02:28:01.828Z,1004.21
2016-10-14T02:29:01.843Z,1004.18
2016-10-14T02:30:01.858Z,1004.18
2016-10-14T02:31:01.878Z,1004.2
2016-10-14T02:32:01.893Z,1004.16
2016-10-14T02:33:01.906Z,1004.19
2016-10-14T02:34:01.923Z,1004.22
2016-10-14T02:35:01.942Z,1004.19
2016-10-14T02:36:01.955Z,1004.17
2016-10-14T02:37:01.974Z,1004.15
2016-10-14T02:38:01.988Z,1004.15
2016-10-14T02:39:02.006Z,1004.14
2016-10-14T02:40:02.022Z,1004.13
2016-10-14T02:41:02.037Z,1004.15
2016-10-14T02:42:02.057Z,1004.08
2016-10-14T02:43:02.069Z,1004.04
2016-10-14T02:44:02.089Z,1004.02
2016-10-14T02:45:02.102Z,1004.06
2016-10-14T02:46:02.121Z,1003.98
2016-10-14T02:47:02.136Z,1003.96
2016-10-14T02:48:02.150Z,1003.9
2016-10-14T02:49:02.167Z,1003.92
2016-10-14T02:50:02.183Z,1003.94
2016-10-14T02:51:02.201Z,1003.92
2016-10-14T02:52:02.215Z,1003.87
2016-10-14T02:53:02.232Z,1003.83
2016-10-14T02:54:02.248Z,1003.78
2016-10-14T02:55:02.263Z,1003.79
2016-10-14T02:56:02.280Z,1003.74
2016-10-14T02:57:02.300Z,1003.73
2016-10-14T02:58:02.312Z,1003.7
2016-10-14T02:59:02.330Z,1003.69
2016-10-14T03:00:02.348Z,1003.73
2016-10-14T03:01:02.365Z,1003.68
2016-10-14T03:02:02.379Z,1003.74
2016-10-14T03:03:02.394Z,1003.7
2016-10-14T03:04:02.411Z,1003.68
2016-10-14T03:05:02.426Z,1003.72
2016-10-14T03:06:02.444Z,1003.68
2016-10-14T03:07:02.461Z,1003.68
2016-10-14T03:08:02.476Z,1003.67
2016-10-14T03:09:02.494Z,1003.69
2016-10-14T03:10:02.511Z,1003.69
2016-10-14T03:11:02.524Z,1003.67
2016-10-14T03:12:02.541Z,1003.68
2016-10-14T03:13:02.559Z,1003.71
2016-10-14T03:14:02.575Z,1003.72
2016-10-14T03:15:02.589Z,1003.7
2016-10-14T03:16:02.605Z,1003.68
2016-10-14T03:17:02.624Z,1003.7
2016-10-14T03:18:02.650Z,1003.7
2016-10-14T03:19:02.655Z,1003.64
2016-10-14T03:20:02.671Z,1003.65
2016-10-14T03:21:02.689Z,1003.67
2016-10-14T03:22:02.703Z,1003.62
2016-10-14T03:23:02.720Z,1003.63
2016-10-14T03:24:02.743Z,1003.59
2016-10-14T03:25:02.755Z,1003.56
2016-10-14T03:26:02.768Z,1003.54
2016-10-14T03:27:02.787Z,1003.52
2016-10-14T03:28:02.803Z,1003.52
2016-10-14T03:29:02.818Z,1003.45
2016-10-14T03:30:02.834Z,1003.43
2016-10-14T03:31:02.849Z,1003.37
2016-10-14T03:32:02.866Z,1003.34
2016-10-14T03:33:02.885Z,1003.32
2016-10-14T03:34:02.901Z,1003.31
2016-10-14T03:35:02.917Z,1003.3
2016-10-14T03:36:02.933Z,1003.29
2016-10-14T03:37:02.950Z,1003.28
2016-10-14T03:38:02.973Z,1003.27
2016-10-14T03:39:02.979Z,1003.2
2016-10-14T03:40:02.999Z,1003.17
2016-10-14T03:41:03.043Z,1003.16
2016-10-14T03:42:03.039Z,1003.16
2016-10-14T03:43:03.071Z,1003.15
2016-10-14T03:44:03.063Z,1003.18
2016-10-14T03:45:03.086Z,1003.19
2016-10-14T03:46:03.122Z,1003.22
2016-10-14T03:47:03.200Z,1003.26
2016-10-14T03:48:03.155Z,1003.2
2016-10-14T03:49:03.141Z,1003.24
2016-10-14T03:50:03.158Z,1003.2
2016-10-14T03:51:03.174Z,1003.26
2016-10-14T03:52:03.191Z,1003.25
2016-10-14T03:53:03.206Z,1003.22
2016-10-14T03:54:03.222Z,1003.24
2016-10-14T03:55:03.239Z,1003.18
2016-10-14T03:56:03.258Z,1003.17
2016-10-14T03:57:03.275Z,1003.2
2016-10-14T03:58:03.288Z,1003.16
2016-10-14T03:59:03.307Z,1003.15
2016-10-14T04:00:03.320Z,1003.19
2016-10-14T04:01:03.339Z,1003.15
2016-10-14T04:02:03.353Z,1003.12
2016-10-14T04:03:03.372Z,1003.13
2016-10-14T04:04:03.386Z,1003.05
2016-10-14T04:05:03.404Z,1003.02
2016-10-14T04:06:03.420Z,1003.04
2016-10-14T04:07:03.437Z,1003.04
2016-10-14T04:08:03.452Z,1003.08
2016-10-14T04:09:03.584Z,1003.08
2016-10-14T04:10:03.483Z,1003.07
2016-10-14T04:11:03.502Z,1003.07
2016-10-14T04:12:03.515Z,1003.1
2016-10-14T04:13:03.532Z,1003.14
2016-10-14T04:14:03.548Z,1003.11
2016-10-14T04:15:03.564Z,1003.12
2016-10-14T04:16:03.580Z,1003.07
2016-10-14T04:17:03.599Z,1003.07
2016-10-14T04:18:03.612Z,1003.09
2016-10-14T04:19:03.630Z,1003.06
2016-10-14T04:20:03.645Z,1003.01
2016-10-14T04:21:03.664Z,1003.01
2016-10-14T04:22:03.687Z,1002.92
2016-10-14T04:23:03.693Z,1002.95
2016-10-14T04:24:03.712Z,1002.9
2016-10-14T04:25:03.729Z,1002.86
2016-10-14T04:26:03.742Z,1002.93
2016-10-14T04:27:03.758Z,1002.91
2016-10-14T04:28:03.783Z,1002.85
2016-10-14T04:29:03.790Z,1002.91
2016-10-14T04:30:03.807Z,1002.93
2016-10-14T04:31:03.826Z,1002.96
2016-10-14T04:32:03.851Z,1002.9
2016-10-14T04:33:03.858Z,1002.92
2016-10-14T04:34:03.871Z,1002.88
2016-10-14T04:35:03.890Z,1002.91
2016-10-14T04:36:03.904Z,1002.89
2016-10-14T04:37:03.919Z,1002.94
2016-10-14T04:38:03.937Z,1002.88
2016-10-14T04:39:03.955Z,1002.87
2016-10-14T04:40:03.968Z,1002.82
2016-10-14T04:41:03.986Z,1002.81
2016-10-14T04:42:04.002Z,1002.81
2016-10-14T04:43:04.017Z,1002.84
2016-10-14T04:44:04.035Z,1002.84
2016-10-14T04:45:04.049Z,1002.83
2016-10-14T04:46:04.068Z,1002.83
2016-10-14T04:47:04.085Z,1002.88
2016-10-14T04:48:04.110Z,1002.88
2016-10-14T04:49:04.114Z,1002.88
2016-10-14T04:50:04.131Z,1002.85
2016-10-14T04:51:04.152Z,1002.82
2016-10-14T04:52:04.167Z,1002.85
2016-10-14T04:53:04.181Z,1002.87
2016-10-14T04:54:04.197Z,1002.93
2016-10-14T04:55:04.214Z,1002.88
2016-10-14T04:56:04.228Z,1002.92
2016-10-14T04:57:04.247Z,1002.87
2016-10-14T04:58:04.262Z,1002.9
2016-10-14T04:59:04.278Z,1002.84
2016-10-14T05:00:04.292Z,1002.96
2016-10-14T05:01:04.312Z,1002.92
2016-10-14T05:02:04.335Z,1002.91
2016-10-14T05:03:04.341Z,1002.95
2016-10-14T05:04:04.360Z,1002.93
2016-10-14T05:05:04.376Z,1002.94
2016-10-14T05:06:04.391Z,1002.94
2016-10-14T05:07:04.406Z,1002.92
2016-10-14T05:08:04.422Z,1002.92
2016-10-14T05:09:04.469Z,1002.93
2016-10-14T05:10:04.455Z,1002.88
2016-10-14T05:11:04.474Z,1002.85
2016-10-14T05:12:04.487Z,1002.89
2016-10-14T05:13:04.506Z,1002.87
2016-10-14T05:14:04.531Z,1002.89
2016-10-14T05:15:04.539Z,1002.9
2016-10-14T05:16:04.553Z,1002.89
2016-10-14T05:17:04.568Z,1002.92
2016-10-14T05:18:04.599Z,1002.9
2016-10-14T05:19:04.601Z,1002.94
2016-10-14T05:20:04.618Z,1002.9
2016-10-14T05:21:04.636Z,1002.91
2016-10-14T05:22:04.649Z,1002.87
2016-10-14T05:23:04.668Z,1002.86
2016-10-14T05:24:04.691Z,1002.79
2016-10-14T05:25:04.702Z,1002.8
2016-10-14T05:26:04.714Z,1002.79
2016-10-14T05:27:04.733Z,1002.81
2016-10-14T05:28:04.746Z,1002.76
2016-10-14T05:29:04.766Z,1002.73
2016-10-14T05:30:04.779Z,1002.77
2016-10-14T05:31:04.796Z,1002.73
2016-10-14T05:32:04.817Z,1002.71
2016-10-14T05:33:04.832Z,1002.72
2016-10-14T05:34:04.849Z,1002.7
2016-10-14T05:35:04.864Z,1002.72
2016-10-14T05:36:04.877Z,1002.72
2016-10-14T05:37:04.897Z,1002.74
2016-10-14T05:38:04.912Z,1002.75
2016-10-14T05:39:04.929Z,1002.7
2016-10-14T05:40:04.942Z,1002.76
2016-10-14T05:41:04.961Z,1002.72
2016-10-14T05:42:04.977Z,1002.77
2016-10-14T05:43:05.011Z,1002.73
2016-10-14T05:44:05.009Z,1002.76
2016-10-14T05:45:05.023Z,1002.74
2016-10-14T05:46:05.041Z,1002.72
2016-10-14T05:47:05.058Z,1002.65
2016-10-14T05:48:05.075Z,1002.69
2016-10-14T05:49:05.088Z,1002.63
2016-10-14T05:50:05.113Z,1002.59
2016-10-14T05:51:05.120Z,1002.63
2016-10-14T05:52:05.137Z,1002.66
2016-10-14T05:53:05.156Z,1002.66
2016-10-14T05:54:05.171Z,1002.62
2016-10-14T05:55:05.185Z,1002.69
2016-10-14T05:56:05.202Z,1002.7
2016-10-14T05:57:05.218Z,1002.64
2016-10-14T05:58:05.243Z,1002.66
2016-10-14T05:59:05.255Z,1002.67
2016-10-14T06:00:05.270Z,1002.63
2016-10-14T06:01:05.285Z,1002.67
2016-10-14T06:02:05.299Z,1002.66
2016-10-14T06:03:05.315Z,1002.7
2016-10-14T06:04:05.331Z,1002.65
2016-10-14T06:05:05.350Z,1002.68
2016-10-14T06:06:05.376Z,1002.64
2016-10-14T06:07:05.383Z,1002.68
2016-10-14T06:08:05.398Z,1002.57
2016-10-14T06:09:05.412Z,1002.58
2016-10-14T06:10:05.432Z,1002.59
2016-10-14T06:11:05.448Z,1002.62
2016-10-14T06:12:05.464Z,1002.64
2016-10-14T06:13:05.477Z,1002.67
2016-10-14T06:14:05.499Z,1002.65
2016-10-14T06:15:05.512Z,1002.61
2016-10-14T06:16:05.526Z,1002.65
2016-10-14T06:17:05.544Z,1002.65
2016-10-14T06:18:05.562Z,1002.65
2016-10-14T06:19:05.577Z,1002.59
2016-10-14T06:20:05.594Z,1002.65
2016-10-14T06:21:05.608Z,1002.62
2016-10-14T06:22:05.651Z,1002.71
2016-10-14T06:23:05.640Z,1002.65
2016-10-14T06:24:05.668Z,1002.65
2016-10-14T06:25:05.673Z,1002.64
2016-10-14T06:26:05.691Z,1002.61
2016-10-14T06:27:05.707Z,1002.65
2016-10-14T06:28:05.731Z,1002.65
2016-10-14T06:29:05.740Z,1002.67
2016-10-14T06:30:05.763Z,1002.66
2016-10-14T06:31:05.772Z,1002.76
2016-10-14T06:32:05.794Z,1002.71
2016-10-14T06:33:05.806Z,1002.77
2016-10-14T06:34:05.818Z,1002.7
2016-10-14T06:35:05.838Z,1002.76
2016-10-14T06:36:05.854Z,1002.71
2016-10-14T06:37:05.867Z,1002.74
2016-10-14T06:38:05.886Z,1002.74
2016-10-14T06:39:05.902Z,1002.73
2016-10-14T06:40:05.923Z,1002.7
2016-10-14T06:41:05.932Z,1002.73
2016-10-14T06:42:05.957Z,1002.73
2016-10-14T06:43:05.964Z,1002.75
2016-10-14T06:44:05.981Z,1002.73
2016-10-14T06:45:05.997Z,1002.76
2016-10-14T06:46:06.015Z,1002.73
2016-10-14T06:47:06.029Z,1002.76
2016-10-14T06:48:06.055Z,1002.71
2016-10-14T06:49:06.065Z,1002.73
2016-10-14T06:50:06.080Z,1002.62
2016-10-14T06:51:06.095Z,1002.65
2016-10-14T06:52:06.110Z,1002.61
2016-10-14T06:53:06.127Z,1002.58
2016-10-14T06:54:06.144Z,1002.61
2016-10-14T06:55:06.165Z,1002.56
2016-10-14T06:56:06.175Z,1002.55
2016-10-14T06:57:06.195Z,1002.52
2016-10-14T06:58:06.209Z,1002.57
2016-10-14T06:59:06.227Z,1002.58
2016-10-14T07:00:06.241Z,1002.61
2016-10-14T07:01:06.257Z,1002.54
2016-10-14T07:02:06.277Z,1002.55
2016-10-14T07:03:06.290Z,1002.54
2016-10-14T07:04:06.309Z,1002.54
2016-10-14T07:05:06.322Z,1002.58
2016-10-14T07:06:06.339Z,1002.53
2016-10-14T07:07:06.359Z,1002.48
2016-10-14T07:08:06.382Z,1002.54
2016-10-14T07:09:06.389Z,1002.56
2016-10-14T07:10:06.407Z,1002.54
2016-10-14T07:11:06.421Z,1002.54
2016-10-14T07:12:06.437Z,1002.49
2016-10-14T07:13:06.454Z,1002.52
2016-10-14T07:14:06.473Z,1002.55
2016-10-14T07:15:06.490Z,1002.59
2016-10-14T07:16:06.507Z,1002.63
2016-10-14T07:17:06.521Z,1002.6
2016-10-14T07:18:06.538Z,1002.61
2016-10-14T07:19:06.553Z,1002.6
2016-10-14T07:20:06.572Z,1002.57
2016-10-14T07:21:06.588Z,1002.61
2016-10-14T07:22:06.604Z,1002.58
2016-10-14T07:23:06.620Z,1002.63
2016-10-14T07:24:06.635Z,1002.55
2016-10-14T07:25:06.653Z,1002.6
2016-10-14T07:26:06.669Z,1002.65
2016-10-14T07:27:06.690Z,1002.66
2016-10-14T07:28:06.699Z,1002.64
2016-10-14T07:29:06.718Z,1002.67
2016-10-14T07:30:06.735Z,1002.64
2016-10-14T07:31:06.758Z,1002.61
2016-10-14T07:32:06.766Z,1002.6
2016-10-14T07:33:06.782Z,1002.6
2016-10-14T07:34:06.802Z,1002.6
2016-10-14T07:35:06.816Z,1002.62
2016-10-14T07:36:06.834Z,1002.59
2016-10-14T07:37:06.859Z,1002.62
2016-10-14T07:38:06.875Z,1002.67
2016-10-14T07:39:06.883Z,1002.64
2016-10-14T07:40:06.899Z,1002.67
2016-10-14T07:41:06.917Z,1002.7
2016-10-14T07:42:06.985Z,1002.75
2016-10-14T07:43:06.952Z,1002.71
2016-10-14T07:44:06.963Z,1002.76
2016-10-14T07:45:06.982Z,1002.8
2016-10-14T07:46:07.006Z,1002.79
2016-10-14T07:47:07.012Z,1002.76
2016-10-14T07:48:07.034Z,1002.74
2016-10-14T07:49:07.048Z,1002.73
2016-10-14T07:50:07.062Z,1002.74
2016-10-14T07:51:07.078Z,1002.77
2016-10-14T07:52:07.100Z,1002.79
2016-10-14T07:53:07.112Z,1002.86
2016-10-14T07:54:07.131Z,1002.75
2016-10-14T07:55:07.145Z,1002.8
2016-10-14T07:56:07.169Z,1002.8
2016-10-14T07:57:07.180Z,1002.85
2016-10-14T07:58:07.195Z,1002.77
2016-10-14T07:59:07.213Z,1002.77
2016-10-14T08:00:07.232Z,1002.77
2016-10-14T08:01:07.244Z,1002.77
2016-10-14T08:02:07.265Z,1002.71
2016-10-14T08:03:07.281Z,1002.75
2016-10-14T08:04:07.298Z,1002.76
2016-10-14T08:05:07.311Z,1002.81
2016-10-14T08:06:07.328Z,1002.76
2016-10-14T08:07:07.347Z,1002.76
2016-10-14T08:08:07.365Z,1002.75
2016-10-14T08:09:07.381Z,1002.83
2016-10-14T08:10:07.398Z,1002.82
2016-10-14T08:11:07.415Z,1002.83
2016-10-14T08:12:07.429Z,1002.82
2016-10-14T08:13:07.460Z,1002.81
2016-10-14T08:14:07.463Z,1002.8
2016-10-14T08:15:07.486Z,1002.77
2016-10-14T08:16:07.500Z,1002.69
2016-10-14T08:17:07.513Z,1002.67
2016-10-14T08:18:07.533Z,1002.64
2016-10-14T08:19:07.552Z,1002.58
2016-10-14T08:20:07.567Z,1002.54
2016-10-14T08:21:07.584Z,1002.53
2016-10-14T08:22:07.602Z,1002.51
2016-10-14T08:23:07.618Z,1002.6
2016-10-14T08:24:07.632Z,1002.61
2016-10-14T08:25:07.652Z,1002.62
2016-10-14T08:26:07.667Z,1002.67
2016-10-14T08:27:07.685Z,1002.64
2016-10-14T08:28:07.703Z,1002.69
2016-10-14T08:29:07.771Z,1002.7
2016-10-14T08:30:07.738Z,1002.64
2016-10-14T08:31:07.752Z,1002.62
2016-10-14T08:32:07.768Z,1002.62
2016-10-14T08:33:07.785Z,1002.59
2016-10-14T08:34:07.804Z,1002.6
2016-10-14T08:35:07.822Z,1002.64
2016-10-14T08:36:07.836Z,1002.61
2016-10-14T08:37:07.853Z,1002.67
2016-10-14T08:38:07.872Z,1002.63
2016-10-14T08:39:07.890Z,1002.66
2016-10-14T08:40:07.914Z,1002.71
2016-10-14T08:41:07.926Z,1002.7
2016-10-14T08:42:07.947Z,1002.75
2016-10-14T08:43:07.959Z,1002.73
2016-10-14T08:44:07.986Z,1002.72
2016-10-14T08:45:07.990Z,1002.7
2016-10-14T08:46:08.021Z,1002.67
2016-10-14T08:47:08.028Z,1002.65
2016-10-14T08:48:08.044Z,1002.7
2016-10-14T08:49:08.062Z,1002.64
2016-10-14T08:50:08.094Z,1002.61
2016-10-14T08:55:28.864Z,1002.57
2016-10-14T08:56:28.879Z,1002.56
2016-10-14T08:57:28.899Z,1002.57
2016-10-14T08:58:28.920Z,1002.53
2016-10-14T08:59:28.931Z,1002.55
2016-10-14T09:00:28.950Z,1002.55
2016-10-14T09:01:28.965Z,1002.52
2016-10-14T09:02:28.983Z,1002.49
2016-10-14T09:03:29.001Z,1002.48
2016-10-14T09:04:29.017Z,1002.48
2016-10-14T09:05:29.034Z,1002.47
2016-10-14T09:06:29.052Z,1002.41
2016-10-14T09:07:29.070Z,1002.45
2016-10-14T09:08:29.089Z,1002.44
2016-10-14T09:09:29.104Z,1002.42
2016-10-14T09:10:29.121Z,1002.46
2016-10-14T09:11:29.138Z,1002.46
2016-10-14T09:12:29.157Z,1002.46
2016-10-14T09:13:29.177Z,1002.47
2016-10-14T09:14:29.192Z,1002.43
2016-10-14T09:15:29.207Z,1002.46
2016-10-14T09:16:29.224Z,1002.45
2016-10-14T09:17:29.245Z,1002.47
2016-10-14T09:18:29.261Z,1002.49
2016-10-14T09:19:29.280Z,1002.46
2016-10-14T09:20:29.298Z,1002.46
2016-10-14T09:21:29.312Z,1002.42
2016-10-14T09:22:29.328Z,1002.49
2016-10-14T09:23:29.349Z,1002.47
2016-10-14T09:24:29.364Z,1002.52
2016-10-14T09:25:29.382Z,1002.52
2016-10-14T09:26:29.401Z,1002.51
2016-10-14T09:27:29.419Z,1002.52
2016-10-14T09:28:29.437Z,1002.49
2016-10-14T09:29:29.449Z,1002.47
2016-10-14T09:30:29.469Z,1002.44
2016-10-14T09:31:29.488Z,1002.43
2016-10-14T09:32:29.504Z,1002.48
2016-10-14T09:33:29.521Z,1002.38
2016-10-14T09:34:29.536Z,1002.47
2016-10-14T09:35:29.557Z,1002.5
2016-10-14T09:36:29.573Z,1002.51
2016-10-14T09:37:29.588Z,1002.52
2016-10-14T09:38:29.609Z,1002.54
2016-10-14T09:39:29.626Z,1002.52
2016-10-14T09:40:29.644Z,1002.51
2016-10-14T09:41:29.665Z,1002.48
2016-10-14T09:42:29.679Z,1002.46
2016-10-14T09:43:29.694Z,1002.48
2016-10-14T09:44:29.710Z,1002.4
2016-10-14T09:45:29.731Z,1002.41
2016-10-14T09:46:29.746Z,1002.36
2016-10-14T09:47:29.763Z,1002.34
2016-10-14T09:48:29.784Z,1002.3
2016-10-14T09:49:29.798Z,1002.3
2016-10-14T09:50:29.819Z,1002.33
2016-10-14T09:51:29.836Z,1002.34
2016-10-14T09:52:29.851Z,1002.35
2016-10-14T09:53:29.869Z,1002.34
2016-10-14T09:54:29.887Z,1002.31
2016-10-14T09:55:29.958Z,1002.3
2016-10-14T09:56:29.926Z,1002.32
2016-10-14T09:57:29.943Z,1002.25
2016-10-14T09:58:29.960Z,1002.31
2016-10-14T09:59:29.975Z,1002.27
2016-10-14T10:00:29.996Z,1002.23
2016-10-14T10:01:30.013Z,1002.27
2016-10-14T10:02:30.031Z,1002.21
2016-10-14T10:03:30.050Z,1002.19
2016-10-14T10:04:30.068Z,1002.09
2016-10-14T10:05:30.082Z,1002.08
2016-10-14T10:06:30.102Z,1002.06
2016-10-14T10:07:30.122Z,1002.07
2016-10-14T10:08:30.140Z,1002.06
2016-10-14T10:09:30.154Z,1002.05
2016-10-14T10:10:30.172Z,1002.04
2016-10-14T10:11:30.190Z,1002.05
2016-10-14T10:12:30.208Z,1002.04
2016-10-14T10:13:30.225Z,1002.1
2016-10-14T10:14:30.244Z,1002.13
2016-10-14T10:15:30.265Z,1002.14
2016-10-14T10:16:30.279Z,1002.16
2016-10-14T10:17:30.301Z,1002.21
2016-10-14T10:18:30.316Z,1002.19
2016-10-14T10:19:30.338Z,1002.25
2016-10-14T10:20:30.355Z,1002.2
2016-10-14T10:21:30.373Z,1002.15
2016-10-14T10:22:30.389Z,1002.16
2016-10-14T10:23:30.410Z,1002.12
2016-10-14T10:24:30.427Z,1002.08
2016-10-14T10:25:30.446Z,1002.02
2016-10-14T10:26:30.462Z,1002
2016-10-14T10:27:30.482Z,1001.99
2016-10-14T10:28:30.499Z,1001.94
2016-10-14T10:29:30.520Z,1001.96
2016-10-14T10:30:30.535Z,1001.92
2016-10-14T10:31:30.554Z,1001.94
2016-10-14T10:32:30.571Z,1001.96
2016-10-14T10:33:30.591Z,1001.94
2016-10-14T10:34:30.609Z,1001.97
2016-10-14T10:35:30.626Z,1002
2016-10-14T10:36:30.648Z,1002.06
2016-10-14T10:37:30.666Z,1002.1
2016-10-14T10:38:30.682Z,1002.1
2016-10-14T10:39:30.703Z,1002.17
2016-10-14T10:40:30.720Z,1002.13
2016-10-14T10:41:30.739Z,1002.15
2016-10-14T10:42:30.756Z,1002.15
2016-10-14T10:43:30.776Z,1002.09
2016-10-14T10:44:30.794Z,1002.08
2016-10-14T10:45:30.814Z,1002.04
2016-10-14T10:46:30.834Z,1002.04
2016-10-14T10:47:30.853Z,1002.03
2016-10-14T10:48:30.871Z,1001.99
2016-10-14T10:49:30.890Z,1001.94
2016-10-14T10:50:30.908Z,1001.9
2016-10-14T10:51:30.929Z,1001.85
2016-10-14T10:52:30.944Z,1001.88
2016-10-14T10:53:30.963Z,1001.8
2016-10-14T10:54:30.984Z,1001.8
2016-10-14T10:55:31.000Z,1001.78
2016-10-14T10:56:31.019Z,1001.74
2016-10-14T10:57:31.041Z,1001.68
2016-10-14T10:58:31.059Z,1001.63
2016-10-14T10:59:31.076Z,1001.61
2016-10-14T11:00:31.097Z,1001.57
2016-10-14T11:01:31.114Z,1001.62
2016-10-14T11:02:31.135Z,1001.63
2016-10-14T11:03:31.152Z,1001.6
2016-10-14T11:04:31.173Z,1001.58
2016-10-14T11:05:31.190Z,1001.55
2016-10-14T11:06:31.209Z,1001.58
2016-10-14T11:07:31.228Z,1001.56
2016-10-14T11:08:31.248Z,1001.55
2016-10-14T11:09:31.268Z,1001.55
2016-10-14T11:10:31.287Z,1001.44
2016-10-14T11:11:31.304Z,1001.56
2016-10-14T11:12:31.327Z,1001.5
2016-10-14T11:13:31.343Z,1001.48
2016-10-14T11:14:31.365Z,1001.47
2016-10-14T11:15:31.380Z,1001.44
2016-10-14T11:16:31.400Z,1001.46
2016-10-14T11:17:31.423Z,1001.44
2016-10-14T11:18:31.442Z,1001.39
2016-10-14T11:19:31.457Z,1001.42
2016-10-14T11:20:31.479Z,1001.34
2016-10-14T11:21:31.497Z,1001.32
2016-10-14T11:22:31.518Z,1001.36
2016-10-14T11:23:31.538Z,1001.44
2016-10-14T11:24:31.555Z,1001.38
2016-10-14T11:25:31.573Z,1001.43
2016-10-14T11:26:31.597Z,1001.47
2016-10-14T11:27:31.612Z,1001.44
2016-10-14T11:28:31.636Z,1001.4
2016-10-14T11:29:31.657Z,1001.4
2016-10-14T11:30:31.675Z,1001.41
2016-10-14T11:31:31.694Z,1001.48
2016-10-14T11:32:31.711Z,1001.44
2016-10-14T11:33:31.732Z,1001.39
2016-10-14T11:34:31.750Z,1001.39
2016-10-14T11:35:31.770Z,1001.38
2016-10-14T11:36:31.789Z,1001.35
2016-10-14T11:37:31.812Z,1001.34
2016-10-14T11:38:31.832Z,1001.32
2016-10-14T11:39:31.848Z,1001.29
2016-10-14T11:40:32.069Z,1001.37
2016-10-14T11:41:31.890Z,1001.36
2016-10-14T11:42:31.906Z,1001.42
2016-10-14T11:43:31.928Z,1001.47
2016-10-14T11:44:31.959Z,1001.52
2016-10-14T11:45:31.967Z,1001.52
2016-10-14T11:46:31.986Z,1001.48
2016-10-14T11:47:32.008Z,1001.48
2016-10-14T11:48:32.031Z,1001.44
2016-10-14T11:49:32.044Z,1001.46
2016-10-14T11:50:32.065Z,1001.42
2016-10-14T11:51:32.083Z,1001.39
2016-10-14T11:52:32.103Z,1001.37
2016-10-14T11:53:32.126Z,1001.43
2016-10-14T11:54:32.145Z,1001.46
2016-10-14T11:55:32.162Z,1001.49
2016-10-14T11:56:32.185Z,1001.49
2016-10-14T11:57:32.203Z,1001.47
2016-10-14T11:58:32.226Z,1001.41
2016-10-14T11:59:32.242Z,1001.42
2016-10-14T12:00:32.271Z,1001.32
2016-10-14T12:01:32.286Z,1001.33
2016-10-14T12:02:32.302Z,1001.26
2016-10-14T12:03:32.325Z,1001.32
2016-10-14T12:04:32.345Z,1001.26
2016-10-14T12:05:32.365Z,1001.24
2016-10-14T12:06:32.385Z,1001.21
2016-10-14T12:07:32.404Z,1001.2
2016-10-14T12:08:32.425Z,1001.15
2016-10-14T12:09:32.445Z,1001.08
2016-10-14T12:10:32.462Z,1001.06
2016-10-14T12:11:32.483Z,1001.04
2016-10-14T12:12:32.502Z,1000.96
2016-10-14T12:13:32.524Z,1000.98